sensor_id;sensor_type;location;lat;lon;timestamp;pressure;altitude;pressure_sealevel;temperature
61977;BMP280;45905;50.570;10.428;2022-10-15T00:01:28;97234.63;;;14.66
61977;BMP280;45905;50.570;10.428;2022-10-15T00:03:55;97222.09;;;14.65
61977;BMP280;45905;50.570;10.428;2022-10-15T00:06:23;97218.94;;;14.63
61977;BMP280;45905;50.570;10.428;2022-10-15T00:08:50;97212.31;;;14.62
61977;BMP280;45905;50.570;10.428;2022-10-15T00:11:24;97217.41;;;14.62
61977;BMP280;45905;50.570;10.428;2022-10-15T00:13:57;97226.81;;;14.61
61977;BMP280;45905;50.570;10.428;2022-10-15T00:16:27;97210.72;;;14.61
61977;BMP280;45905;50.570;10.428;2022-10-15T00:18:57;97206.41;;;14.61
61977;BMP280;45905;50.570;10.428;2022-10-15T00:21:25;97203.09;;;14.61
61977;BMP280;45905;50.570;10.428;2022-10-15T00:23:52;97203.09;;;14.61
61977;BMP280;45905;50.570;10.428;2022-10-15T00:26:24;97194.66;;;14.60
61977;BMP280;45905;50.570;10.428;2022-10-15T00:28:54;97197.00;;;14.62
61977;BMP280;45905;50.570;10.428;2022-10-15T00:31:24;97198.97;;;14.60
61977;BMP280;45905;50.570;10.428;2022-10-15T00:33:56;97206.00;;;14.58
61977;BMP280;45905;50.570;10.428;2022-10-15T00:36:31;97210.31;;;14.57
61977;BMP280;45905;50.570;10.428;2022-10-15T00:38:59;97206.00;;;14.58
61977;BMP280;45905;50.570;10.428;2022-10-15T00:41:43;97212.88;;;14.57
61977;BMP280;45905;50.570;10.428;2022-10-15T00:47:19;97205.63;;;14.54
61977;BMP280;45905;50.570;10.428;2022-10-15T00:53:01;97206.81;;;14.52
61977;BMP280;45905;50.570;10.428;2022-10-15T00:55:33;97210.34;;;14.51
61977;BMP280;45905;50.570;10.428;2022-10-15T00:58:09;97203.66;;;14.50
61977;BMP280;45905;50.570;10.428;2022-10-15T01:00:38;97202.69;;;14.51
61977;BMP280;45905;50.570;10.428;2022-10-15T01:03:06;97203.66;;;14.50
61977;BMP280;45905;50.570;10.428;2022-10-15T01:05:36;97192.88;;;14.48
61977;BMP280;45905;50.570;10.428;2022-10-15T01:08:07;97180.72;;;14.50
61977;BMP280;45905;50.570;10.428;2022-10-15T01:14:43;97188.38;;;14.50
61977;BMP280;45905;50.570;10.428;2022-10-15T01:17:06;97180.91;;;14.49
61977;BMP280;45905;50.570;10.428;2022-10-15T01:26:24;97162.28;;;14.48
61977;BMP280;45905;50.570;10.428;2022-10-15T01:34:52;97160.72;;;14.47
61977;BMP280;45905;50.570;10.428;2022-10-15T01:37:37;97160.72;;;14.47
61977;BMP280;45905;50.570;10.428;2022-10-15T01:40:17;97155.03;;;14.45
61977;BMP280;45905;50.570;10.428;2022-10-15T01:42:59;97156.59;;;14.46
61977;BMP280;45905;50.570;10.428;2022-10-15T01:45:48;97154.66;;;14.48
61977;BMP280;45905;50.570;10.428;2022-10-15T01:48:39;97156.41;;;14.48
61977;BMP280;45905;50.570;10.428;2022-10-15T01:51:10;97154.66;;;14.48
61977;BMP280;45905;50.570;10.428;2022-10-15T01:53:40;97157.78;;;14.50
61977;BMP280;45905;50.570;10.428;2022-10-15T01:56:15;97146.03;;;14.49
61977;BMP280;45905;50.570;10.428;2022-10-15T01:58:48;97144.47;;;14.48
61977;BMP280;45905;50.570;10.428;2022-10-15T02:01:16;97142.69;;;14.49
61977;BMP280;45905;50.570;10.428;2022-10-15T02:03:50;97138.56;;;14.48
61977;BMP280;45905;50.570;10.428;2022-10-15T02:06:25;97135.06;;;14.49
61977;BMP280;45905;50.570;10.428;2022-10-15T02:10:04;97135.84;;;14.49
61977;BMP280;45905;50.570;10.428;2022-10-15T02:15:05;97129.97;;;14.49
61977;BMP280;45905;50.570;10.428;2022-10-15T02:18:13;97128.38;;;14.48
61977;BMP280;45905;50.570;10.428;2022-10-15T02:21:05;97130.75;;;14.49
61977;BMP280;45905;50.570;10.428;2022-10-15T02:23:52;97129.16;;;14.48
61977;BMP280;45905;50.570;10.428;2022-10-15T02:26:27;97115.47;;;14.49
61977;BMP280;45905;50.570;10.428;2022-10-15T02:28:58;97117.63;;;14.52
61977;BMP280;45905;50.570;10.428;2022-10-15T02:31:32;97120.72;;;14.54
61977;BMP280;45905;50.570;10.428;2022-10-15T02:34:05;97113.88;;;14.54
61977;BMP280;45905;50.570;10.428;2022-10-15T02:36:39;97106.22;;;14.54
61977;BMP280;45905;50.570;10.428;2022-10-15T02:39:10;97104.28;;;14.56
61977;BMP280;45905;50.570;10.428;2022-10-15T02:41:39;97096.81;;;14.55
61977;BMP280;45905;50.570;10.428;2022-10-15T02:44:09;97092.31;;;14.57
61977;BMP280;45905;50.570;10.428;2022-10-15T02:46:37;97102.50;;;14.57
61977;BMP280;45905;50.570;10.428;2022-10-15T02:49:04;97107.59;;;14.57
61977;BMP280;45905;50.570;10.428;2022-10-15T02:51:33;97100.94;;;14.56
61977;BMP280;45905;50.570;10.428;2022-10-15T02:54:03;97094.28;;;14.55
61977;BMP280;45905;50.570;10.428;2022-10-15T02:56:31;97103.69;;;14.54
61977;BMP280;45905;50.570;10.428;2022-10-15T02:58:59;97102.88;;;14.54
61977;BMP280;45905;50.570;10.428;2022-10-15T03:01:26;97113.09;;;14.54
61977;BMP280;45905;50.570;10.428;2022-10-15T03:03:53;97100.56;;;14.52
61977;BMP280;45905;50.570;10.428;2022-10-15T03:06:20;97115.63;;;14.54
61977;BMP280;45905;50.570;10.428;2022-10-15T03:08:48;97118.97;;;14.54
61977;BMP280;45905;50.570;10.428;2022-10-15T03:11:15;97117.41;;;14.53
61977;BMP280;45905;50.570;10.428;2022-10-15T03:13:42;97122.72;;;14.52
61977;BMP280;45905;50.570;10.428;2022-10-15T03:16:10;97120.72;;;14.54
61977;BMP280;45905;50.570;10.428;2022-10-15T03:18:40;97108.22;;;14.52
61977;BMP280;45905;50.570;10.428;2022-10-15T03:21:09;97111.53;;;14.53
61977;BMP280;45905;50.570;10.428;2022-10-15T03:23:38;97101.34;;;14.53
61977;BMP280;45905;50.570;10.428;2022-10-15T03:26:11;97096.25;;;14.53
61977;BMP280;45905;50.570;10.428;2022-10-15T03:28:38;97090.38;;;14.52
61977;BMP280;45905;50.570;10.428;2022-10-15T03:31:06;97089.59;;;14.52
61977;BMP280;45905;50.570;10.428;2022-10-15T03:33:33;97097.78;;;14.54
61977;BMP280;45905;50.570;10.428;2022-10-15T03:36:01;97104.66;;;14.53
61977;BMP280;45905;50.570;10.428;2022-10-15T03:38:28;97118.00;;;14.55
61977;BMP280;45905;50.570;10.428;2022-10-15T03:40:56;97119.75;;;14.55
61977;BMP280;45905;50.570;10.428;2022-10-15T03:43:30;97113.88;;;14.54
61977;BMP280;45905;50.570;10.428;2022-10-15T03:46:04;97127.19;;;14.56
61977;BMP280;45905;50.570;10.428;2022-10-15T03:48:35;97123.88;;;14.56
61977;BMP280;45905;50.570;10.428;2022-10-15T03:51:03;97129.16;;;14.54
61977;BMP280;45905;50.570;10.428;2022-10-15T03:53:30;97126.41;;;14.56
61977;BMP280;45905;50.570;10.428;2022-10-15T03:56:05;97118.19;;;14.54
61977;BMP280;45905;50.570;10.428;2022-10-15T03:58:36;97109.00;;;14.53
61977;BMP280;45905;50.570;10.428;2022-10-15T04:01:13;97116.84;;;14.51
61977;BMP280;45905;50.570;10.428;2022-10-15T04:03:41;97117.81;;;14.50
61977;BMP280;45905;50.570;10.428;2022-10-15T04:06:09;97109.97;;;14.52
61977;BMP280;45905;50.570;10.428;2022-10-15T04:08:37;97115.06;;;14.52
61977;BMP280;45905;50.570;10.428;2022-10-15T04:11:21;97107.63;;;14.50
61977;BMP280;45905;50.570;10.428;2022-10-15T04:13:58;97097.22;;;14.52
61977;BMP280;45905;50.570;10.428;2022-10-15T04:16:26;97099.78;;;14.52
61977;BMP280;45905;50.570;10.428;2022-10-15T04:18:53;97110.75;;;14.52
61977;BMP280;45905;50.570;10.428;2022-10-15T04:21:20;97107.44;;;14.52
61977;BMP280;45905;50.570;10.428;2022-10-15T04:23:54;97116.63;;;14.53
61977;BMP280;45905;50.570;10.428;2022-10-15T04:26:31;97114.84;;;14.53
61977;BMP280;45905;50.570;10.428;2022-10-15T04:29:00;97113.09;;;14.54
61977;BMP280;45905;50.570;10.428;2022-10-15T04:31:28;97114.09;;;14.53
61977;BMP280;45905;50.570;10.428;2022-10-15T04:33:56;97115.63;;;14.54
61977;BMP280;45905;50.570;10.428;2022-10-15T04:36:23;97112.88;;;14.55
61977;BMP280;45905;50.570;10.428;2022-10-15T04:38:56;97106.03;;;14.56
61977;BMP280;45905;50.570;10.428;2022-10-15T04:41:42;97109.38;;;14.56
61977;BMP280;45905;50.570;10.428;2022-10-15T04:44:16;97116.63;;;14.53
61977;BMP280;45905;50.570;10.428;2022-10-15T04:46:49;97118.59;;;14.51
61977;BMP280;45905;50.570;10.428;2022-10-15T04:49:42;97116.84;;;14.51
61977;BMP280;45905;50.570;10.428;2022-10-15T04:52:29;97120.34;;;14.50
61977;BMP280;45905;50.570;10.428;2022-10-15T04:55:03;97121.53;;;14.48
61977;BMP280;45905;50.570;10.428;2022-10-15T04:57:30;97110.75;;;14.46
61977;BMP280;45905;50.570;10.428;2022-10-15T04:59:58;97125.84;;;14.48
61977;BMP280;45905;50.570;10.428;2022-10-15T05:02:48;97123.66;;;14.45
61977;BMP280;45905;50.570;10.428;2022-10-15T05:05:22;97120.16;;;14.46
61977;BMP280;45905;50.570;10.428;2022-10-15T05:08:00;97121.72;;;14.47
61977;BMP280;45905;50.570;10.428;2022-10-15T05:10:29;97121.72;;;14.47
61977;BMP280;45905;50.570;10.428;2022-10-15T05:13:00;97120.16;;;14.46
61977;BMP280;45905;50.570;10.428;2022-10-15T05:15:31;97112.31;;;14.47
61977;BMP280;45905;50.570;10.428;2022-10-15T05:17:58;97111.53;;;14.47
61977;BMP280;45905;50.570;10.428;2022-10-15T05:20:33;97113.09;;;14.48
61977;BMP280;45905;50.570;10.428;2022-10-15T05:23:01;97111.34;;;14.48
61977;BMP280;45905;50.570;10.428;2022-10-15T05:25:33;97117.81;;;14.50
61977;BMP280;45905;50.570;10.428;2022-10-15T05:28:00;97109.00;;;14.53
61977;BMP280;45905;50.570;10.428;2022-10-15T05:30:27;97113.09;;;14.54
61977;BMP280;45905;50.570;10.428;2022-10-15T05:32:55;97113.88;;;14.54
61977;BMP280;45905;50.570;10.428;2022-10-15T05:35:23;97124.06;;;14.54
61977;BMP280;45905;50.570;10.428;2022-10-15T05:37:58;97126.84;;;14.53
61977;BMP280;45905;50.570;10.428;2022-10-15T05:40:25;97134.25;;;14.54
61977;BMP280;45905;50.570;10.428;2022-10-15T05:43:21;97131.50;;;14.56
61977;BMP280;45905;50.570;10.428;2022-10-15T05:45:48;97126.84;;;14.53
61977;BMP280;45905;50.570;10.428;2022-10-15T05:48:19;97136.81;;;14.54
61977;BMP280;45905;50.570;10.428;2022-10-15T05:50:46;97140.13;;;14.55
61977;BMP280;45905;50.570;10.428;2022-10-15T05:53:21;97154.44;;;14.56
61977;BMP280;45905;50.570;10.428;2022-10-15T05:55:52;97147.22;;;14.53
61977;BMP280;45905;50.570;10.428;2022-10-15T05:58:22;97157.41;;;14.53
61977;BMP280;45905;50.570;10.428;2022-10-15T06:01:10;97153.06;;;14.53
61977;BMP280;45905;50.570;10.428;2022-10-15T06:03:41;97156.41;;;14.54
61977;BMP280;45905;50.570;10.428;2022-10-15T06:06:18;97157.97;;;14.55
61977;BMP280;45905;50.570;10.428;2022-10-15T06:08:47;97163.84;;;14.55
61977;BMP280;45905;50.570;10.428;2022-10-15T06:11:15;97178.97;;;14.57
61977;BMP280;45905;50.570;10.428;2022-10-15T06:13:44;97175.44;;;14.58
61977;BMP280;45905;50.570;10.428;2022-10-15T06:16:15;97173.84;;;14.57
61977;BMP280;45905;50.570;10.428;2022-10-15T06:18:48;97178.97;;;14.57
61977;BMP280;45905;50.570;10.428;2022-10-15T06:21:15;97169.75;;;14.56
61977;BMP280;45905;50.570;10.428;2022-10-15T06:23:42;97177.38;;;14.56
61977;BMP280;45905;50.570;10.428;2022-10-15T06:26:09;97178.97;;;14.57
61977;BMP280;45905;50.570;10.428;2022-10-15T06:28:38;97168.56;;;14.58
61977;BMP280;45905;50.570;10.428;2022-10-15T06:31:06;97175.44;;;14.58
61977;BMP280;45905;50.570;10.428;2022-10-15T06:33:34;97173.47;;;14.60
61977;BMP280;45905;50.570;10.428;2022-10-15T06:36:07;97178.56;;;14.60
61977;BMP280;45905;50.570;10.428;2022-10-15T06:38:35;97189.56;;;14.60
61977;BMP280;45905;50.570;10.428;2022-10-15T06:41:06;97195.81;;;14.58
61977;BMP280;45905;50.570;10.428;2022-10-15T06:43:33;97186.41;;;14.58
61977;BMP280;45905;50.570;10.428;2022-10-15T06:46:03;97184.84;;;14.57
61977;BMP280;45905;50.570;10.428;2022-10-15T06:48:31;97193.09;;;14.59
61977;BMP280;45905;50.570;10.428;2022-10-15T06:51:00;97189.56;;;14.60
61977;BMP280;45905;50.570;10.428;2022-10-15T06:53:28;97195.44;;;14.61
61977;BMP280;45905;50.570;10.428;2022-10-15T06:56:01;97197.75;;;14.62
61977;BMP280;45905;50.570;10.428;2022-10-15T06:58:33;97209.34;;;14.65
61977;BMP280;45905;50.570;10.428;2022-10-15T07:01:05;97206.78;;;14.65
61977;BMP280;45905;50.570;10.428;2022-10-15T07:03:33;97198.16;;;14.66
61977;BMP280;45905;50.570;10.428;2022-10-15T07:06:03;97207.19;;;14.68
61977;BMP280;45905;50.570;10.428;2022-10-15T07:08:31;97210.91;;;14.66
61977;BMP280;45905;50.570;10.428;2022-10-15T07:11:04;97217.41;;;14.68
61977;BMP280;45905;50.570;10.428;2022-10-15T07:13:32;97237.00;;;14.68
61977;BMP280;45905;50.570;10.428;2022-10-15T07:16:09;97237.78;;;14.68
61977;BMP280;45905;50.570;10.428;2022-10-15T07:18:37;97242.88;;;14.68
61977;BMP280;45905;50.570;10.428;2022-10-15T07:21:06;97239.53;;;14.68
61977;BMP280;45905;50.570;10.428;2022-10-15T07:23:34;97239.34;;;14.69
61977;BMP280;45905;50.570;10.428;2022-10-15T07:26:01;97231.31;;;14.72
61977;BMP280;45905;50.570;10.428;2022-10-15T07:28:28;97235.41;;;14.73
61977;BMP280;45905;50.570;10.428;2022-10-15T07:31:02;97243.66;;;14.75
61977;BMP280;45905;50.570;10.428;2022-10-15T07:33:30;97246.81;;;14.77
61977;BMP280;45905;50.570;10.428;2022-10-15T07:36:09;97267.56;;;14.80
61977;BMP280;45905;50.570;10.428;2022-10-15T07:38:37;97282.88;;;14.80
61977;BMP280;45905;50.570;10.428;2022-10-15T07:41:09;97281.34;;;14.79
61977;BMP280;45905;50.570;10.428;2022-10-15T07:43:41;97290.53;;;14.74
61977;BMP280;45905;50.570;10.428;2022-10-15T07:46:09;97289.34;;;14.76
61977;BMP280;45905;50.570;10.428;2022-10-15T07:48:36;97286.81;;;14.76
61977;BMP280;45905;50.570;10.428;2022-10-15T07:51:05;97284.06;;;14.78
61977;BMP280;45905;50.570;10.428;2022-10-15T07:53:33;97280.31;;;14.80
61977;BMP280;45905;50.570;10.428;2022-10-15T07:56:04;97280.91;;;14.82
61977;BMP280;45905;50.570;10.428;2022-10-15T07:58:34;97277.22;;;14.85
61977;BMP280;45905;50.570;10.428;2022-10-15T08:01:06;97277.81;;;14.87
61977;BMP280;45905;50.570;10.428;2022-10-15T08:03:36;97276.81;;;14.88
61977;BMP280;45905;50.570;10.428;2022-10-15T08:06:05;97270.94;;;14.93
61977;BMP280;45905;50.570;10.428;2022-10-15T08:08:34;97278.22;;;14.96
61977;BMP280;45905;50.570;10.428;2022-10-15T08:11:11;97287.22;;;14.99
61977;BMP280;45905;50.570;10.428;2022-10-15T08:13:39;97293.53;;;15.03
61977;BMP280;45905;50.570;10.428;2022-10-15T08:16:09;97287.25;;;15.05
61977;BMP280;45905;50.570;10.428;2022-10-15T08:18:38;97287.63;;;15.08
61977;BMP280;45905;50.570;10.428;2022-10-15T08:21:07;97276.63;;;15.08
61977;BMP280;45905;50.570;10.428;2022-10-15T08:23:35;97286.81;;;15.14
61977;BMP280;45905;50.570;10.428;2022-10-15T08:26:04;97288.22;;;15.17
61977;BMP280;45905;50.570;10.428;2022-10-15T08:28:34;97291.16;;;15.20
61977;BMP280;45905;50.570;10.428;2022-10-15T08:31:02;97287.22;;;15.24
61977;BMP280;45905;50.570;10.428;2022-10-15T08:33:33;97286.84;;;15.27
61977;BMP280;45905;50.570;10.428;2022-10-15T08:36:04;97297.03;;;15.27
61977;BMP280;45905;50.570;10.428;2022-10-15T08:38:32;97300.56;;;15.26
61977;BMP280;45905;50.570;10.428;2022-10-15T08:41:03;97308.03;;;15.27
61977;BMP280;45905;50.570;10.428;2022-10-15T08:43:39;97309.22;;;15.31
61977;BMP280;45905;50.570;10.428;2022-10-15T08:46:35;97317.84;;;15.37
61977;BMP280;45905;50.570;10.428;2022-10-15T08:49:04;97321.34;;;15.42
61977;BMP280;45905;50.570;10.428;2022-10-15T08:51:45;97324.91;;;15.47
61977;BMP280;45905;50.570;10.428;2022-10-15T08:54:17;97318.22;;;15.53
61977;BMP280;45905;50.570;10.428;2022-10-15T08:57:10;97331.94;;;15.58
61977;BMP280;45905;50.570;10.428;2022-10-15T09:00:18;97329.97;;;15.66
61977;BMP280;45905;50.570;10.428;2022-10-15T09:02:56;97327.78;;;15.70
61977;BMP280;45905;50.570;10.428;2022-10-15T09:05:32;97325.63;;;15.73
61977;BMP280;45905;50.570;10.428;2022-10-15T09:08:29;97318.94;;;15.79
61977;BMP280;45905;50.570;10.428;2022-10-15T09:11:05;97320.13;;;15.83
61977;BMP280;45905;50.570;10.428;2022-10-15T09:13:42;97313.59;;;15.86
61977;BMP280;45905;50.570;10.428;2022-10-15T09:16:19;97307.91;;;15.91
61977;BMP280;45905;50.570;10.428;2022-10-15T09:18:50;97313.38;;;15.94
61977;BMP280;45905;50.570;10.428;2022-10-15T09:21:21;97313.03;;;15.97
61977;BMP280;45905;50.570;10.428;2022-10-15T09:23:53;97317.75;;;16.00
61977;BMP280;45905;50.570;10.428;2022-10-15T09:26:46;97323.59;;;16.07
61977;BMP280;45905;50.570;10.428;2022-10-15T09:37:27;97326.88;;;16.20
61977;BMP280;45905;50.570;10.428;2022-10-15T09:43:11;97334.53;;;16.26
61977;BMP280;45905;50.570;10.428;2022-10-15T09:45:39;97336.91;;;16.28
61977;BMP280;45905;50.570;10.428;2022-10-15T09:48:18;97337.25;;;16.31
61977;BMP280;45905;50.570;10.428;2022-10-15T09:51:04;97342.38;;;16.31
61977;BMP280;45905;50.570;10.428;2022-10-15T09:53:59;97341.97;;;16.34
61977;BMP280;45905;50.570;10.428;2022-10-15T09:56:37;97343.13;;;16.38
61977;BMP280;45905;50.570;10.428;2022-10-15T09:59:04;97346.84;;;16.42
61977;BMP280;45905;50.570;10.428;2022-10-15T10:01:35;97353.09;;;16.46
61977;BMP280;45905;50.570;10.428;2022-10-15T10:04:19;97339.91;;;16.49
61977;BMP280;45905;50.570;10.428;2022-10-15T10:07:00;97348.38;;;16.49
61977;BMP280;45905;50.570;10.428;2022-10-15T10:09:33;97353.28;;;16.51
61977;BMP280;45905;50.570;10.428;2022-10-15T10:12:16;97349.94;;;16.50
61977;BMP280;45905;50.570;10.428;2022-10-15T10:14:57;97354.66;;;16.53
61977;BMP280;45905;50.570;10.428;2022-10-15T10:17:27;97350.69;;;16.57
61977;BMP280;45905;50.570;10.428;2022-10-15T10:20:31;97356.41;;;16.59
61977;BMP280;45905;50.570;10.428;2022-10-15T10:23:02;97353.66;;;16.61
61977;BMP280;45905;50.570;10.428;2022-10-15T10:25:37;97348.09;;;16.63
61977;BMP280;45905;50.570;10.428;2022-10-15T10:33:14;97367.31;;;16.79
61977;BMP280;45905;50.570;10.428;2022-10-15T10:35:49;97366.09;;;16.81
61977;BMP280;45905;50.570;10.428;2022-10-15T10:38:22;97366.69;;;16.83
61977;BMP280;45905;50.570;10.428;2022-10-15T10:41:05;97363.72;;;16.86
61977;BMP280;45905;50.570;10.428;2022-10-15T10:43:52;97352.91;;;16.84
61977;BMP280;45905;50.570;10.428;2022-10-15T10:46:21;97356.63;;;16.88
61977;BMP280;45905;50.570;10.428;2022-10-15T10:48:52;97365.66;;;16.90
61977;BMP280;45905;50.570;10.428;2022-10-15T10:51:25;97368.00;;;16.92
61977;BMP280;45905;50.570;10.428;2022-10-15T10:54:05;97361.91;;;16.93
61977;BMP280;45905;50.570;10.428;2022-10-15T10:56:43;97357.97;;;16.97
61977;BMP280;45905;50.570;10.428;2022-10-15T11:01:49;97360.34;;;16.98
61977;BMP280;45905;50.570;10.428;2022-10-15T11:04:31;97360.75;;;16.95
61977;BMP280;45905;50.570;10.428;2022-10-15T11:10:39;97362.47;;;17.01
61977;BMP280;45905;50.570;10.428;2022-10-15T11:16:09;97371.25;;;17.11
61977;BMP280;45905;50.570;10.428;2022-10-15T11:19:02;97374.22;;;17.08
61977;BMP280;45905;50.570;10.428;2022-10-15T11:25:45;97360.97;;;17.18
61977;BMP280;45905;50.570;10.428;2022-10-15T11:40:59;97361.34;;;17.45
61977;BMP280;45905;50.570;10.428;2022-10-15T11:56:18;97338.84;;;17.71
61977;BMP280;45905;50.570;10.428;2022-10-15T11:59:01;97338.78;;;17.77
61977;BMP280;45905;50.570;10.428;2022-10-15T12:02:34;97336.31;;;17.88
61977;BMP280;45905;50.570;10.428;2022-10-15T12:04:53;97330.88;;;18.02
61977;BMP280;45905;50.570;10.428;2022-10-15T12:07:32;97327.94;;;18.16
61977;BMP280;45905;50.570;10.428;2022-10-15T12:13:47;97324.00;;;18.32
61977;BMP280;45905;50.570;10.428;2022-10-15T12:16:45;97327.34;;;18.32
61977;BMP280;45905;50.570;10.428;2022-10-15T12:22:11;97321.38;;;18.38
61977;BMP280;45905;50.570;10.428;2022-10-15T12:29:50;97328.91;;;18.33
61977;BMP280;45905;50.570;10.428;2022-10-15T12:32:24;97335.59;;;18.34
61977;BMP280;45905;50.570;10.428;2022-10-15T12:35:01;97320.63;;;18.31
61977;BMP280;45905;50.570;10.428;2022-10-15T12:37:33;97325.34;;;18.34
61977;BMP280;45905;50.570;10.428;2022-10-15T12:40:24;97321.44;;;18.32
61977;BMP280;45905;50.570;10.428;2022-10-15T12:43:11;97329.09;;;18.20
61977;BMP280;45905;50.570;10.428;2022-10-15T12:45:49;97326.78;;;18.13
61977;BMP280;45905;50.570;10.428;2022-10-15T12:48:40;97321.13;;;18.11
61977;BMP280;45905;50.570;10.428;2022-10-15T12:51:29;97325.66;;;18.09
61977;BMP280;45905;50.570;10.428;2022-10-15T12:53:57;97323.50;;;18.06
61977;BMP280;45905;50.570;10.428;2022-10-15T12:56:38;97317.28;;;18.02
61977;BMP280;45905;50.570;10.428;2022-10-15T13:02:48;97317.81;;;18.04
61977;BMP280;45905;50.570;10.428;2022-10-15T13:05:28;97314.47;;;18.03
61977;BMP280;45905;50.570;10.428;2022-10-15T13:07:58;97318.06;;;18.02
61977;BMP280;45905;50.570;10.428;2022-10-15T13:10:39;97321.81;;;18.00
61977;BMP280;45905;50.570;10.428;2022-10-15T13:13:21;97318.38;;;18.06
61977;BMP280;45905;50.570;10.428;2022-10-15T13:16:05;97315.97;;;18.11
61977;BMP280;45905;50.570;10.428;2022-10-15T13:18:34;97309.63;;;18.13
61977;BMP280;45905;50.570;10.428;2022-10-15T13:21:02;97313.13;;;18.18
61977;BMP280;45905;50.570;10.428;2022-10-15T13:23:32;97304.16;;;18.27
61977;BMP280;45905;50.570;10.428;2022-10-15T13:26:19;97309.09;;;18.40
61977;BMP280;45905;50.570;10.428;2022-10-15T13:28:49;97312.72;;;18.50
61977;BMP280;45905;50.570;10.428;2022-10-15T13:31:24;97314.75;;;18.59
61977;BMP280;45905;50.570;10.428;2022-10-15T13:34:30;97317.00;;;18.67
61977;BMP280;45905;50.570;10.428;2022-10-15T13:37:01;97315.78;;;18.70
61977;BMP280;45905;50.570;10.428;2022-10-15T13:39:37;97314.38;;;18.73
61977;BMP280;45905;50.570;10.428;2022-10-15T13:42:21;97304.31;;;18.72
61977;BMP280;45905;50.570;10.428;2022-10-15T13:47:38;97300.34;;;18.76
61977;BMP280;45905;50.570;10.428;2022-10-15T13:53:13;97299.91;;;18.79
61977;BMP280;45905;50.570;10.428;2022-10-15T13:55:50;97301.47;;;18.80
61977;BMP280;45905;50.570;10.428;2022-10-15T14:03:49;97295.81;;;18.89
61977;BMP280;45905;50.570;10.428;2022-10-15T14:06:21;97290.53;;;18.84
61977;BMP280;45905;50.570;10.428;2022-10-15T14:08:55;97302.38;;;18.85
61977;BMP280;45905;50.570;10.428;2022-10-15T14:11:24;97297.44;;;18.84
61977;BMP280;45905;50.570;10.428;2022-10-15T14:13:57;97305.28;;;18.89
61977;BMP280;45905;50.570;10.428;2022-10-15T14:16:30;97310.50;;;18.82
61977;BMP280;45905;50.570;10.428;2022-10-15T14:19:10;97314.31;;;18.80
61977;BMP280;45905;50.570;10.428;2022-10-15T14:21:43;97314.41;;;18.85
61977;BMP280;45905;50.570;10.428;2022-10-15T14:24:26;97304.94;;;18.85
61977;BMP280;45905;50.570;10.428;2022-10-15T14:26:54;97308.44;;;18.91
61977;BMP280;45905;50.570;10.428;2022-10-15T14:29:28;97309.50;;;18.83
61977;BMP280;45905;50.570;10.428;2022-10-15T14:32:00;97318.66;;;18.79
61977;BMP280;45905;50.570;10.428;2022-10-15T14:34:36;97310.50;;;18.82
61977;BMP280;45905;50.570;10.428;2022-10-15T14:42:42;97324.28;;;18.70
61977;BMP280;45905;50.570;10.428;2022-10-15T14:45:29;97308.31;;;18.68
61977;BMP280;45905;50.570;10.428;2022-10-15T14:48:05;97309.97;;;18.63
61977;BMP280;45905;50.570;10.428;2022-10-15T14:50:40;97300.50;;;18.63
61977;BMP280;45905;50.570;10.428;2022-10-15T14:53:15;97302.50;;;18.61
61977;BMP280;45905;50.570;10.428;2022-10-15T14:55:50;97310.41;;;18.60
61977;BMP280;45905;50.570;10.428;2022-10-15T14:58:21;97311.63;;;18.57
61977;BMP280;45905;50.570;10.428;2022-10-15T15:00:59;97323.75;;;18.51
61977;BMP280;45905;50.570;10.428;2022-10-15T15:03:40;97320.06;;;18.47
61977;BMP280;45905;50.570;10.428;2022-10-15T15:06:08;97300.31;;;18.47
61977;BMP280;45905;50.570;10.428;2022-10-15T15:08:36;97308.25;;;18.46
61977;BMP280;45905;50.570;10.428;2022-10-15T15:11:06;97311.81;;;18.45
61977;BMP280;45905;50.570;10.428;2022-10-15T15:13:40;97306.00;;;18.38
61977;BMP280;45905;50.570;10.428;2022-10-15T15:16:13;97312.22;;;18.42
61977;BMP280;45905;50.570;10.428;2022-10-15T15:18:40;97307.31;;;18.40
61977;BMP280;45905;50.570;10.428;2022-10-15T15:21:19;97304.41;;;18.37
61977;BMP280;45905;50.570;10.428;2022-10-15T15:23:47;97312.31;;;18.35
61977;BMP280;45905;50.570;10.428;2022-10-15T15:26:14;97311.63;;;18.29
61977;BMP280;45905;50.570;10.428;2022-10-15T15:28:41;97317.97;;;18.26
61977;BMP280;45905;50.570;10.428;2022-10-15T15:31:16;97328.72;;;18.17
61977;BMP280;45905;50.570;10.428;2022-10-15T15:33:44;97319.66;;;18.14
61977;BMP280;45905;50.570;10.428;2022-10-15T15:36:15;97312.97;;;18.14
61977;BMP280;45905;50.570;10.428;2022-10-15T15:38:49;97316.53;;;18.13
61977;BMP280;45905;50.570;10.428;2022-10-15T15:41:21;97315.00;;;18.12
61977;BMP280;45905;50.570;10.428;2022-10-15T15:43:50;97322.09;;;18.10
61977;BMP280;45905;50.570;10.428;2022-10-15T15:46:18;97319.03;;;18.01
61977;BMP280;45905;50.570;10.428;2022-10-15T15:48:45;97321.25;;;17.98
61977;BMP280;45905;50.570;10.428;2022-10-15T15:51:23;97336.50;;;17.93
61977;BMP280;45905;50.570;10.428;2022-10-15T15:53:51;97332.19;;;17.87
61977;BMP280;45905;50.570;10.428;2022-10-15T15:56:18;97336.38;;;17.82
61977;BMP280;45905;50.570;10.428;2022-10-15T15:58:45;97329.53;;;17.76
61977;BMP280;45905;50.570;10.428;2022-10-15T16:01:14;97320.91;;;17.71
61977;BMP280;45905;50.570;10.428;2022-10-15T16:03:41;97327.94;;;17.57
61977;BMP280;45905;50.570;10.428;2022-10-15T16:06:08;97332.88;;;17.59
61977;BMP280;45905;50.570;10.428;2022-10-15T16:08:36;97334.84;;;17.57
61977;BMP280;45905;50.570;10.428;2022-10-15T16:11:05;97337.69;;;17.49
61977;BMP280;45905;50.570;10.428;2022-10-15T16:13:33;97342.06;;;17.42
61977;BMP280;45905;50.570;10.428;2022-10-15T16:16:00;97343.63;;;17.43
61977;BMP280;45905;50.570;10.428;2022-10-15T16:18:27;97349.53;;;17.44
61977;BMP280;45905;50.570;10.428;2022-10-15T16:20:55;97348.53;;;17.45
61977;BMP280;45905;50.570;10.428;2022-10-15T16:23:22;97362.13;;;17.45
61977;BMP280;45905;50.570;10.428;2022-10-15T16:25:49;97358.97;;;17.43